Ban Bo Sai, Thailand

5:33 PM +07 on March 29, 2017 (GMT +0700)
Phuket, NE of island | | Change Station

Elev 0 ft 8.10 °N, 98.38 °E | Updated 1 second ago

Mostly Cloudy
Mostly Cloudy
82.4 °F
Feels Like 94 °F
N
2.9
Wind Variable Wind from ESE
Gusts 4.9 mph

Today
High -- | Low -- °F
--% Chance of Precip.
Yesterday
High -- | Low -- °F
Precip. -- in
Pressure 29.89 in
Visibility 3.7 miles
Clouds Scattered Clouds 1600 ft
Mostly Cloudy 10000 ft
Heat Index 94 °F
Dew Point 80 °F
Humidity 93%
Rainfall 0.00 in
Snow Depth Not available.
6:26 AM 6:36 PM
New Moon, 2% visible
METAR VTSP 291000Z 08010KT 030V140 6000 SCT016 BKN100 27/21 Q1012 TEMPO 3000 TSRA
Pressure 29.89 in
Visibility 3.7 miles
Clouds Scattered Clouds 1600 ft
Mostly Cloudy 10000 ft
Heat Index 94 °F
Dew Point 80 °F
Humidity 93%
Rainfall 0.00 in
Snow Depth Not available.
6:26 AM 6:36 PM
New Moon, 2% visible
METAR VTSP 291000Z 08010KT 030V140 6000 SCT016 BKN100 27/21 Q1012 TEMPO 3000 TSRA

Get Severe Weather Alerts

Thanks for signing up!

Be on the lookout for a verification email in your inbox.

You'll start receiving the daily forecast at 8 AM.

×

10-Day Weather Forecast

No radar image for this location.
×

Almanac

Astronomy

Mar. 29, 2017 Rise Set
Actual Time
Civil Twilight
Nautical Twilight
Astronomical Twilight
Moon
Length of Visible Light
Length of Day
Tomorrow will be .
, % of the Moon is Illuminated

Today's Extremes

Country Highs Country Lows

Community

WunderPhotos

Upload Photos

1,962,540 photos uploaded!

WunderBlog® & News

Nearby

Air Quality

  Air Quality AQ Index Pollutant
Not available.

Snow Depth

Station Depth Elevation

Earthquake Activity

City Distance Mag. Time & Date
Minimum magnitude displayed is 2.5.

Earthquake Activity

City Distance Mag. Time & Date
Minimum magnitude displayed is 2.5.

Coastal Water Temperatures

Place Temperature

Stations

Nearby Weather Stations

Station Location Temp. Windchill Dew Point Humidity Wind Precip. Elev Updated Type